Atwood, IN

7:14 PM EST on February 11, 2016 (GMT -0500)
Yeiter and Son | | Change Station
CLOSE
Current Station
Personal Weather Station
Location: Warsaw, IN
Elevation: 950 ft
Nearby Weather Stations

Elev 950 ft 41.23 °N, 85.99 °W | Updated 8 minutes ago

Partly Cloudy
Partly Cloudy
17.5 °F
Feels Like 18 °F
N
0.0
Wind Variable Wind from WSW
Gusts 1.0 mph

Today
High -- | Low -- °F
--% Chance of Precip.
Yesterday
High -- | Low -- °F
Precip. -- in
Pressure 30.28 in
Visibility 10.0 miles
Clouds Clear
Windchill 18 °F
Dew Point 11 °F
Humidity 76%
Rainfall 0.00 in
Snow Depth Not available.
7:44 AM 6:12 PM
Waxing Crescent, 15% visible
METAR KASW 112355Z AUTO 00000KT 10SM CLR M08/M15 A3028 RMK AO2
Pressure 30.28 in
Visibility 10.0 miles
Clouds Clear
Windchill 18 °F
Dew Point 11 °F
Humidity 76%
Rainfall 0.00 in
Snow Depth Not available.
7:44 AM 6:12 PM
Waxing Crescent, 15% visible
METAR KASW 112355Z AUTO 00000KT 10SM CLR M08/M15 A3028 RMK AO2

10-Day Weather Forecast

Almanac

Astronomy

Feb. 11, 2016 Rise Set
Actual Time
Civil Twilight
Nautical Twilight
Astronomical Twilight
Moon
Length of Visible Light
Length of Day
Tomorrow will be .
, % of the Moon is Illuminated

Today's Extremes

State Highs State Lows

Community

WunderPhotos

Upload Photos

1,892,186 photos uploaded!

WunderBlog® & News

Nearby

Air Quality

  Air Quality AQ Index Pollutant
Not available.

Snow Depth

Station Depth Elevation

Earthquake Activity

City Distance Mag. Time & Date
Minimum magnitude displayed is 2.5.

Coastal Water Temperatures

Place Temperature

Stations

Nearby Weather Stations

Station Location Temp. Windchill Dew Point Humidity Wind Precip. Elev Updated Type
                   

Watches & Warnings

There are currently no watches in effect.